sensor_id;sensor_type;location;lat;lon;timestamp;P1;durP1;ratioP1;P2;durP2;ratioP2
6499;SDS011;3283;52.330;9.772;2022-08-05T00:00:12;10.70;;;3.93;;
6499;SDS011;3283;52.330;9.772;2022-08-05T00:02:38;4.97;;;2.93;;
6499;SDS011;3283;52.330;9.772;2022-08-05T00:05:04;5.50;;;3.70;;
6499;SDS011;3283;52.330;9.772;2022-08-05T00:07:30;5.77;;;3.10;;
6499;SDS011;3283;52.330;9.772;2022-08-05T00:09:56;7.77;;;4.40;;
6499;SDS011;3283;52.330;9.772;2022-08-05T00:12:21;8.53;;;4.00;;
6499;SDS011;3283;52.330;9.772;2022-08-05T00:14:47;10.30;;;3.83;;
6499;SDS011;3283;52.330;9.772;2022-08-05T00:17:12;9.30;;;4.40;;
6499;SDS011;3283;52.330;9.772;2022-08-05T00:19:37;8.13;;;4.50;;
6499;SDS011;3283;52.330;9.772;2022-08-05T00:22:03;11.77;;;4.60;;
6499;SDS011;3283;52.330;9.772;2022-08-05T00:24:28;6.40;;;4.43;;
6499;SDS011;3283;52.330;9.772;2022-08-05T00:26:54;9.43;;;5.30;;
6499;SDS011;3283;52.330;9.772;2022-08-05T00:29:20;17.83;;;5.40;;
6499;SDS011;3283;52.330;9.772;2022-08-05T00:31:46;18.20;;;7.17;;
6499;SDS011;3283;52.330;9.772;2022-08-05T00:34:13;10.20;;;6.50;;
6499;SDS011;3283;52.330;9.772;2022-08-05T00:36:39;15.37;;;8.07;;
6499;SDS011;3283;52.330;9.772;2022-08-05T00:39:04;18.77;;;8.47;;
6499;SDS011;3283;52.330;9.772;2022-08-05T00:41:32;15.30;;;8.70;;
6499;SDS011;3283;52.330;9.772;2022-08-05T00:43:58;19.63;;;7.90;;
6499;SDS011;3283;52.330;9.772;2022-08-05T00:46:24;21.80;;;9.43;;
6499;SDS011;3283;52.330;9.772;2022-08-05T00:48:50;16.57;;;10.10;;
6499;SDS011;3283;52.330;9.772;2022-08-05T00:51:16;17.17;;;9.20;;
6499;SDS011;3283;52.330;9.772;2022-08-05T00:53:42;27.23;;;10.10;;
6499;SDS011;3283;52.330;9.772;2022-08-05T00:56:08;16.57;;;8.60;;
6499;SDS011;3283;52.330;9.772;2022-08-05T00:58:33;22.90;;;10.60;;
6499;SDS011;3283;52.330;9.772;2022-08-05T01:00:59;15.53;;;9.20;;
6499;SDS011;3283;52.330;9.772;2022-08-05T01:03:24;29.93;;;11.83;;
6499;SDS011;3283;52.330;9.772;2022-08-05T01:05:50;20.97;;;10.10;;
6499;SDS011;3283;52.330;9.772;2022-08-05T01:08:16;23.90;;;11.67;;
6499;SDS011;3283;52.330;9.772;2022-08-05T01:10:50;18.50;;;10.43;;
6499;SDS011;3283;52.330;9.772;2022-08-05T01:13:31;17.80;;;10.03;;
6499;SDS011;3283;52.330;9.772;2022-08-05T01:16:05;14.67;;;9.90;;
6499;SDS011;3283;52.330;9.772;2022-08-05T01:18:36;19.70;;;10.97;;
6499;SDS011;3283;52.330;9.772;2022-08-05T01:21:10;16.17;;;8.83;;
6499;SDS011;3283;52.330;9.772;2022-08-05T01:23:59;20.20;;;9.87;;
6499;SDS011;3283;52.330;9.772;2022-08-05T01:29:44;19.20;;;10.50;;
6499;SDS011;3283;52.330;9.772;2022-08-05T01:32:14;17.27;;;9.77;;
6499;SDS011;3283;52.330;9.772;2022-08-05T01:34:50;26.40;;;10.13;;
6499;SDS011;3283;52.330;9.772;2022-08-05T01:37:22;20.13;;;9.60;;
6499;SDS011;3283;52.330;9.772;2022-08-05T01:39:51;21.20;;;11.77;;
6499;SDS011;3283;52.330;9.772;2022-08-05T01:42:19;21.07;;;9.87;;
6499;SDS011;3283;52.330;9.772;2022-08-05T01:44:48;15.23;;;10.10;;
6499;SDS011;3283;52.330;9.772;2022-08-05T01:47:15;15.37;;;9.20;;
6499;SDS011;3283;52.330;9.772;2022-08-05T01:49:43;15.60;;;9.37;;
6499;SDS011;3283;52.330;9.772;2022-08-05T01:52:10;19.87;;;10.87;;
6499;SDS011;3283;52.330;9.772;2022-08-05T01:54:42;20.20;;;9.60;;
6499;SDS011;3283;52.330;9.772;2022-08-05T01:57:10;17.60;;;8.80;;
6499;SDS011;3283;52.330;9.772;2022-08-05T01:59:38;16.20;;;9.47;;
6499;SDS011;3283;52.330;9.772;2022-08-05T02:02:06;16.73;;;8.50;;
6499;SDS011;3283;52.330;9.772;2022-08-05T02:04:35;16.93;;;8.87;;
6499;SDS011;3283;52.330;9.772;2022-08-05T02:07:04;18.90;;;9.60;;
6499;SDS011;3283;52.330;9.772;2022-08-05T02:09:29;22.43;;;9.07;;
6499;SDS011;3283;52.330;9.772;2022-08-05T02:12:05;25.90;;;9.23;;
6499;SDS011;3283;52.330;9.772;2022-08-05T02:14:39;16.67;;;8.90;;
6499;SDS011;3283;52.330;9.772;2022-08-05T02:17:16;12.13;;;8.17;;
6499;SDS011;3283;52.330;9.772;2022-08-05T02:19:49;17.83;;;9.10;;
6499;SDS011;3283;52.330;9.772;2022-08-05T02:22:20;16.73;;;8.77;;
6499;SDS011;3283;52.330;9.772;2022-08-05T02:24:51;12.80;;;8.20;;
6499;SDS011;3283;52.330;9.772;2022-08-05T02:27:20;11.97;;;7.97;;
6499;SDS011;3283;52.330;9.772;2022-08-05T02:29:47;20.23;;;8.47;;
6499;SDS011;3283;52.330;9.772;2022-08-05T02:32:14;22.87;;;9.80;;
6499;SDS011;3283;52.330;9.772;2022-08-05T02:34:43;20.03;;;8.87;;
6499;SDS011;3283;52.330;9.772;2022-08-05T02:37:10;25.50;;;10.70;;
6499;SDS011;3283;52.330;9.772;2022-08-05T02:39:38;25.90;;;10.43;;
6499;SDS011;3283;52.330;9.772;2022-08-05T02:42:05;24.83;;;11.07;;
6499;SDS011;3283;52.330;9.772;2022-08-05T02:44:32;18.73;;;10.50;;
6499;SDS011;3283;52.330;9.772;2022-08-05T02:47:00;18.37;;;10.50;;
6499;SDS011;3283;52.330;9.772;2022-08-05T02:49:28;28.93;;;13.40;;
6499;SDS011;3283;52.330;9.772;2022-08-05T02:51:56;24.50;;;11.47;;
6499;SDS011;3283;52.330;9.772;2022-08-05T02:54:22;30.50;;;10.87;;
6499;SDS011;3283;52.330;9.772;2022-08-05T02:56:49;22.70;;;11.53;;
6499;SDS011;3283;52.330;9.772;2022-08-05T02:59:15;30.47;;;13.47;;
6499;SDS011;3283;52.330;9.772;2022-08-05T03:01:43;21.80;;;11.10;;
6499;SDS011;3283;52.330;9.772;2022-08-05T03:04:13;25.70;;;11.97;;
6499;SDS011;3283;52.330;9.772;2022-08-05T03:06:39;23.03;;;10.03;;
6499;SDS011;3283;52.330;9.772;2022-08-05T03:09:06;18.60;;;11.17;;
6499;SDS011;3283;52.330;9.772;2022-08-05T03:11:33;16.77;;;8.97;;
6499;SDS011;3283;52.330;9.772;2022-08-05T03:13:58;18.03;;;9.60;;
6499;SDS011;3283;52.330;9.772;2022-08-05T03:16:24;19.13;;;10.60;;
6499;SDS011;3283;52.330;9.772;2022-08-05T03:18:49;22.53;;;11.40;;
6499;SDS011;3283;52.330;9.772;2022-08-05T03:21:15;19.30;;;10.07;;
6499;SDS011;3283;52.330;9.772;2022-08-05T03:23:42;18.07;;;10.07;;
6499;SDS011;3283;52.330;9.772;2022-08-05T03:26:09;19.60;;;10.57;;
6499;SDS011;3283;52.330;9.772;2022-08-05T03:28:35;21.07;;;11.17;;
6499;SDS011;3283;52.330;9.772;2022-08-05T03:31:01;21.43;;;10.80;;
6499;SDS011;3283;52.330;9.772;2022-08-05T03:33:27;16.93;;;9.70;;
6499;SDS011;3283;52.330;9.772;2022-08-05T03:35:54;20.37;;;10.90;;
6499;SDS011;3283;52.330;9.772;2022-08-05T03:38:24;19.57;;;10.27;;
6499;SDS011;3283;52.330;9.772;2022-08-05T03:40:50;18.97;;;11.27;;
6499;SDS011;3283;52.330;9.772;2022-08-05T03:43:19;27.43;;;11.50;;
6499;SDS011;3283;52.330;9.772;2022-08-05T03:45:46;16.87;;;10.93;;
6499;SDS011;3283;52.330;9.772;2022-08-05T03:48:12;24.70;;;12.50;;
6499;SDS011;3283;52.330;9.772;2022-08-05T03:50:47;17.70;;;12.23;;
6499;SDS011;3283;52.330;9.772;2022-08-05T03:53:32;35.73;;;13.10;;
6499;SDS011;3283;52.330;9.772;2022-08-05T03:56:14;24.27;;;12.80;;
6499;SDS011;3283;52.330;9.772;2022-08-05T03:58:46;24.50;;;12.83;;
6499;SDS011;3283;52.330;9.772;2022-08-05T04:01:14;24.40;;;12.47;;
6499;SDS011;3283;52.330;9.772;2022-08-05T04:03:43;27.77;;;13.50;;
6499;SDS011;3283;52.330;9.772;2022-08-05T04:06:11;21.80;;;13.13;;
6499;SDS011;3283;52.330;9.772;2022-08-05T04:08:37;23.63;;;12.63;;
6499;SDS011;3283;52.330;9.772;2022-08-05T04:11:04;24.00;;;12.63;;
6499;SDS011;3283;52.330;9.772;2022-08-05T04:13:31;25.37;;;12.80;;
6499;SDS011;3283;52.330;9.772;2022-08-05T04:15:57;23.17;;;12.50;;
6499;SDS011;3283;52.330;9.772;2022-08-05T04:18:23;23.13;;;11.77;;
6499;SDS011;3283;52.330;9.772;2022-08-05T04:20:56;24.43;;;13.47;;
6499;SDS011;3283;52.330;9.772;2022-08-05T04:23:22;22.87;;;12.87;;
6499;SDS011;3283;52.330;9.772;2022-08-05T04:25:50;29.50;;;12.63;;
6499;SDS011;3283;52.330;9.772;2022-08-05T04:28:16;33.63;;;13.33;;
6499;SDS011;3283;52.330;9.772;2022-08-05T04:30:42;26.07;;;14.00;;
6499;SDS011;3283;52.330;9.772;2022-08-05T04:33:07;26.30;;;14.17;;
6499;SDS011;3283;52.330;9.772;2022-08-05T04:35:33;21.30;;;13.30;;
6499;SDS011;3283;52.330;9.772;2022-08-05T04:37:58;27.70;;;14.37;;
6499;SDS011;3283;52.330;9.772;2022-08-05T04:40:24;32.47;;;14.73;;
6499;SDS011;3283;52.330;9.772;2022-08-05T04:42:49;31.17;;;14.53;;
6499;SDS011;3283;52.330;9.772;2022-08-05T04:45:14;30.83;;;14.43;;
6499;SDS011;3283;52.330;9.772;2022-08-05T04:47:40;27.67;;;15.23;;
6499;SDS011;3283;52.330;9.772;2022-08-05T04:50:06;34.67;;;13.63;;
6499;SDS011;3283;52.330;9.772;2022-08-05T04:52:32;23.13;;;13.73;;
6499;SDS011;3283;52.330;9.772;2022-08-05T04:54:57;32.60;;;14.73;;
6499;SDS011;3283;52.330;9.772;2022-08-05T04:57:23;26.93;;;13.23;;
6499;SDS011;3283;52.330;9.772;2022-08-05T04:59:49;24.03;;;13.37;;
6499;SDS011;3283;52.330;9.772;2022-08-05T05:02:15;29.03;;;15.70;;
6499;SDS011;3283;52.330;9.772;2022-08-05T05:04:40;25.83;;;14.67;;
6499;SDS011;3283;52.330;9.772;2022-08-05T05:07:06;32.33;;;13.43;;
6499;SDS011;3283;52.330;9.772;2022-08-05T05:09:31;22.57;;;13.50;;
6499;SDS011;3283;52.330;9.772;2022-08-05T05:11:56;23.50;;;13.63;;
6499;SDS011;3283;52.330;9.772;2022-08-05T05:14:22;25.60;;;15.17;;
6499;SDS011;3283;52.330;9.772;2022-08-05T05:16:48;23.13;;;13.33;;
6499;SDS011;3283;52.330;9.772;2022-08-05T05:19:14;21.53;;;13.20;;
6499;SDS011;3283;52.330;9.772;2022-08-05T05:21:39;20.23;;;12.57;;
6499;SDS011;3283;52.330;9.772;2022-08-05T05:24:05;29.23;;;13.23;;
6499;SDS011;3283;52.330;9.772;2022-08-05T05:26:30;21.47;;;12.10;;
6499;SDS011;3283;52.330;9.772;2022-08-05T05:28:56;24.00;;;12.70;;
6499;SDS011;3283;52.330;9.772;2022-08-05T05:31:21;21.37;;;12.93;;
6499;SDS011;3283;52.330;9.772;2022-08-05T05:33:46;31.60;;;12.70;;
6499;SDS011;3283;52.330;9.772;2022-08-05T05:36:12;24.40;;;11.63;;
6499;SDS011;3283;52.330;9.772;2022-08-05T05:38:37;21.97;;;12.93;;
6499;SDS011;3283;52.330;9.772;2022-08-05T05:41:03;16.43;;;11.57;;
6499;SDS011;3283;52.330;9.772;2022-08-05T05:43:28;23.30;;;13.67;;
6499;SDS011;3283;52.330;9.772;2022-08-05T05:45:53;20.93;;;13.30;;
6499;SDS011;3283;52.330;9.772;2022-08-05T05:48:19;23.90;;;13.90;;
6499;SDS011;3283;52.330;9.772;2022-08-05T05:50:44;19.47;;;14.70;;
6499;SDS011;3283;52.330;9.772;2022-08-05T05:53:12;21.40;;;13.80;;
6499;SDS011;3283;52.330;9.772;2022-08-05T05:55:37;18.43;;;12.67;;
6499;SDS011;3283;52.330;9.772;2022-08-05T05:58:03;21.47;;;13.87;;
6499;SDS011;3283;52.330;9.772;2022-08-05T06:00:28;19.03;;;13.33;;
6499;SDS011;3283;52.330;9.772;2022-08-05T06:02:53;18.40;;;12.80;;
6499;SDS011;3283;52.330;9.772;2022-08-05T06:05:19;19.30;;;12.33;;
6499;SDS011;3283;52.330;9.772;2022-08-05T06:07:45;25.23;;;12.93;;
6499;SDS011;3283;52.330;9.772;2022-08-05T06:10:11;20.23;;;12.33;;
6499;SDS011;3283;52.330;9.772;2022-08-05T06:12:37;20.60;;;12.73;;
6499;SDS011;3283;52.330;9.772;2022-08-05T06:15:04;23.60;;;14.30;;
6499;SDS011;3283;52.330;9.772;2022-08-05T06:17:31;14.83;;;10.70;;
6499;SDS011;3283;52.330;9.772;2022-08-05T06:19:57;17.67;;;9.93;;
6499;SDS011;3283;52.330;9.772;2022-08-05T06:22:23;16.60;;;9.77;;
6499;SDS011;3283;52.330;9.772;2022-08-05T06:24:53;19.90;;;10.20;;
6499;SDS011;3283;52.330;9.772;2022-08-05T06:27:19;17.90;;;8.80;;
6499;SDS011;3283;52.330;9.772;2022-08-05T06:29:44;26.07;;;13.13;;
6499;SDS011;3283;52.330;9.772;2022-08-05T06:32:10;18.67;;;8.40;;
6499;SDS011;3283;52.330;9.772;2022-08-05T06:34:36;11.80;;;8.77;;
6499;SDS011;3283;52.330;9.772;2022-08-05T06:37:02;14.03;;;8.70;;
6499;SDS011;3283;52.330;9.772;2022-08-05T06:39:28;15.23;;;9.10;;
6499;SDS011;3283;52.330;9.772;2022-08-05T06:41:57;18.77;;;10.07;;
6499;SDS011;3283;52.330;9.772;2022-08-05T06:44:25;16.10;;;9.20;;
6499;SDS011;3283;52.330;9.772;2022-08-05T06:46:51;19.47;;;9.50;;
6499;SDS011;3283;52.330;9.772;2022-08-05T06:49:16;16.87;;;9.33;;
6499;SDS011;3283;52.330;9.772;2022-08-05T06:51:42;15.40;;;8.50;;
6499;SDS011;3283;52.330;9.772;2022-08-05T06:54:07;16.93;;;8.47;;
6499;SDS011;3283;52.330;9.772;2022-08-05T06:56:33;12.13;;;8.13;;
6499;SDS011;3283;52.330;9.772;2022-08-05T06:58:58;14.63;;;8.20;;
6499;SDS011;3283;52.330;9.772;2022-08-05T07:01:24;14.97;;;9.50;;
6499;SDS011;3283;52.330;9.772;2022-08-05T07:03:49;15.03;;;9.50;;
6499;SDS011;3283;52.330;9.772;2022-08-05T07:06:15;14.83;;;9.97;;
6499;SDS011;3283;52.330;9.772;2022-08-05T07:08:41;17.70;;;9.20;;
6499;SDS011;3283;52.330;9.772;2022-08-05T07:11:08;14.83;;;9.60;;
6499;SDS011;3283;52.330;9.772;2022-08-05T07:13:34;14.30;;;8.90;;
6499;SDS011;3283;52.330;9.772;2022-08-05T07:16:28;22.83;;;8.97;;
6499;SDS011;3283;52.330;9.772;2022-08-05T07:19:13;17.37;;;8.40;;
6499;SDS011;3283;52.330;9.772;2022-08-05T07:21:39;17.00;;;9.30;;
6499;SDS011;3283;52.330;9.772;2022-08-05T07:24:05;16.50;;;9.00;;
6499;SDS011;3283;52.330;9.772;2022-08-05T07:26:31;12.93;;;9.67;;
6499;SDS011;3283;52.330;9.772;2022-08-05T07:28:56;15.90;;;10.10;;
6499;SDS011;3283;52.330;9.772;2022-08-05T07:31:21;13.87;;;8.63;;
6499;SDS011;3283;52.330;9.772;2022-08-05T07:33:47;12.47;;;7.77;;
6499;SDS011;3283;52.330;9.772;2022-08-05T07:36:12;10.77;;;8.97;;
6499;SDS011;3283;52.330;9.772;2022-08-05T07:38:39;14.57;;;8.70;;
6499;SDS011;3283;52.330;9.772;2022-08-05T07:41:05;14.27;;;8.30;;
6499;SDS011;3283;52.330;9.772;2022-08-05T07:43:33;11.40;;;7.67;;
6499;SDS011;3283;52.330;9.772;2022-08-05T07:45:59;16.20;;;7.33;;
6499;SDS011;3283;52.330;9.772;2022-08-05T07:48:25;9.57;;;7.70;;
6499;SDS011;3283;52.330;9.772;2022-08-05T07:50:50;9.70;;;7.83;;
6499;SDS011;3283;52.330;9.772;2022-08-05T07:53:16;8.57;;;6.80;;
6499;SDS011;3283;52.330;9.772;2022-08-05T07:55:42;9.63;;;6.93;;
6499;SDS011;3283;52.330;9.772;2022-08-05T07:58:07;10.33;;;6.70;;
6499;SDS011;3283;52.330;9.772;2022-08-05T08:00:33;9.50;;;7.90;;
6499;SDS011;3283;52.330;9.772;2022-08-05T08:02:58;14.00;;;7.60;;
6499;SDS011;3283;52.330;9.772;2022-08-05T08:05:24;14.10;;;7.53;;
6499;SDS011;3283;52.330;9.772;2022-08-05T08:07:50;7.67;;;6.90;;
6499;SDS011;3283;52.330;9.772;2022-08-05T08:10:16;8.90;;;6.10;;
6499;SDS011;3283;52.330;9.772;2022-08-05T08:12:41;9.43;;;6.57;;
6499;SDS011;3283;52.330;9.772;2022-08-05T08:15:08;14.43;;;6.77;;
6499;SDS011;3283;52.330;9.772;2022-08-05T08:17:35;8.17;;;6.70;;
6499;SDS011;3283;52.330;9.772;2022-08-05T08:20:00;8.67;;;6.77;;
6499;SDS011;3283;52.330;9.772;2022-08-05T08:22:28;13.20;;;7.47;;
6499;SDS011;3283;52.330;9.772;2022-08-05T08:24:53;7.80;;;6.50;;
6499;SDS011;3283;52.330;9.772;2022-08-05T08:27:19;9.90;;;7.13;;
6499;SDS011;3283;52.330;9.772;2022-08-05T08:29:44;16.17;;;6.83;;
6499;SDS011;3283;52.330;9.772;2022-08-05T08:32:10;6.83;;;5.63;;
6499;SDS011;3283;52.330;9.772;2022-08-05T08:34:35;8.47;;;6.57;;
6499;SDS011;3283;52.330;9.772;2022-08-05T08:37:01;14.07;;;7.40;;
6499;SDS011;3283;52.330;9.772;2022-08-05T08:39:26;10.83;;;6.40;;
6499;SDS011;3283;52.330;9.772;2022-08-05T08:41:53;10.17;;;5.70;;
6499;SDS011;3283;52.330;9.772;2022-08-05T08:44:20;7.13;;;5.83;;
6499;SDS011;3283;52.330;9.772;2022-08-05T08:46:48;9.80;;;6.60;;
6499;SDS011;3283;52.330;9.772;2022-08-05T08:49:14;6.27;;;5.57;;
6499;SDS011;3283;52.330;9.772;2022-08-05T08:51:41;8.23;;;6.10;;
6499;SDS011;3283;52.330;9.772;2022-08-05T08:54:10;9.00;;;6.07;;
6499;SDS011;3283;52.330;9.772;2022-08-05T08:56:37;8.53;;;5.30;;
6499;SDS011;3283;52.330;9.772;2022-08-05T08:59:03;9.97;;;6.60;;
6499;SDS011;3283;52.330;9.772;2022-08-05T09:01:29;14.53;;;7.70;;
6499;SDS011;3283;52.330;9.772;2022-08-05T09:03:56;13.67;;;7.67;;
6499;SDS011;3283;52.330;9.772;2022-08-05T09:06:27;11.80;;;6.47;;
6499;SDS011;3283;52.330;9.772;2022-08-05T09:08:54;11.37;;;6.77;;
6499;SDS011;3283;52.330;9.772;2022-08-05T09:11:19;9.37;;;6.30;;
6499;SDS011;3283;52.330;9.772;2022-08-05T09:13:45;11.77;;;7.97;;
6499;SDS011;3283;52.330;9.772;2022-08-05T09:16:11;17.20;;;8.03;;
6499;SDS011;3283;52.330;9.772;2022-08-05T09:18:37;15.73;;;8.03;;
6499;SDS011;3283;52.330;9.772;2022-08-05T09:21:03;16.10;;;7.43;;
6499;SDS011;3283;52.330;9.772;2022-08-05T09:23:29;14.07;;;7.17;;
6499;SDS011;3283;52.330;9.772;2022-08-05T09:26:08;6.90;;;5.70;;
6499;SDS011;3283;52.330;9.772;2022-08-05T09:28:39;5.50;;;4.90;;
6499;SDS011;3283;52.330;9.772;2022-08-05T09:31:05;9.90;;;6.83;;
6499;SDS011;3283;52.330;9.772;2022-08-05T09:33:31;10.67;;;7.13;;
6499;SDS011;3283;52.330;9.772;2022-08-05T09:36:14;9.80;;;5.60;;
6499;SDS011;3283;52.330;9.772;2022-08-05T09:38:56;10.87;;;5.77;;
6499;SDS011;3283;52.330;9.772;2022-08-05T09:41:26;7.37;;;5.97;;
6499;SDS011;3283;52.330;9.772;2022-08-05T09:43:52;10.07;;;6.63;;
6499;SDS011;3283;52.330;9.772;2022-08-05T09:48:56;7.03;;;6.00;;
6499;SDS011;3283;52.330;9.772;2022-08-05T09:51:32;8.40;;;6.07;;
6499;SDS011;3283;52.330;9.772;2022-08-05T09:53:59;12.20;;;5.87;;
6499;SDS011;3283;52.330;9.772;2022-08-05T10:01:23;8.70;;;4.60;;
6499;SDS011;3283;52.330;9.772;2022-08-05T10:03:56;17.07;;;6.07;;
6499;SDS011;3283;52.330;9.772;2022-08-05T10:06:24;5.33;;;4.70;;
6499;SDS011;3283;52.330;9.772;2022-08-05T10:08:51;5.90;;;4.73;;
6499;SDS011;3283;52.330;9.772;2022-08-05T10:11:17;7.20;;;4.50;;
6499;SDS011;3283;52.330;9.772;2022-08-05T10:13:42;8.77;;;4.83;;
6499;SDS011;3283;52.330;9.772;2022-08-05T10:18:52;3.50;;;3.20;;
6499;SDS011;3283;52.330;9.772;2022-08-05T10:21:19;4.13;;;3.30;;
6499;SDS011;3283;52.330;9.772;2022-08-05T10:23:44;4.93;;;3.20;;
6499;SDS011;3283;52.330;9.772;2022-08-05T10:26:12;11.23;;;3.37;;
6499;SDS011;3283;52.330;9.772;2022-08-05T10:28:37;4.10;;;3.00;;
6499;SDS011;3283;52.330;9.772;2022-08-05T10:31:03;3.60;;;2.83;;
6499;SDS011;3283;52.330;9.772;2022-08-05T10:33:31;2.77;;;2.57;;
6499;SDS011;3283;52.330;9.772;2022-08-05T10:35:58;2.77;;;2.47;;
6499;SDS011;3283;52.330;9.772;2022-08-05T10:38:28;5.00;;;2.50;;
6499;SDS011;3283;52.330;9.772;2022-08-05T10:41:12;7.50;;;3.13;;
6499;SDS011;3283;52.330;9.772;2022-08-05T10:46:23;3.40;;;3.17;;
6499;SDS011;3283;52.330;9.772;2022-08-05T10:48:49;8.13;;;2.97;;
6499;SDS011;3283;52.330;9.772;2022-08-05T10:51:21;5.40;;;4.00;;
6499;SDS011;3283;52.330;9.772;2022-08-05T10:56:22;6.57;;;3.70;;
6499;SDS011;3283;52.330;9.772;2022-08-05T11:01:26;8.77;;;4.87;;
6499;SDS011;3283;52.330;9.772;2022-08-05T11:09:21;7.90;;;5.03;;
6499;SDS011;3283;52.330;9.772;2022-08-05T11:11:48;5.90;;;5.20;;
6499;SDS011;3283;52.330;9.772;2022-08-05T11:14:31;9.00;;;5.07;;
6499;SDS011;3283;52.330;9.772;2022-08-05T11:19:52;5.60;;;4.80;;
6499;SDS011;3283;52.330;9.772;2022-08-05T11:27:55;7.47;;;4.77;;
6499;SDS011;3283;52.330;9.772;2022-08-05T11:33:32;4.37;;;3.90;;
6499;SDS011;3283;52.330;9.772;2022-08-05T11:35:58;6.50;;;4.17;;
6499;SDS011;3283;52.330;9.772;2022-08-05T11:43:29;5.53;;;4.07;;
6499;SDS011;3283;52.330;9.772;2022-08-05T11:45:55;5.33;;;3.53;;
6499;SDS011;3283;52.330;9.772;2022-08-05T11:48:21;3.43;;;3.17;;
6499;SDS011;3283;52.330;9.772;2022-08-05T11:50:50;5.90;;;3.63;;
6499;SDS011;3283;52.330;9.772;2022-08-05T11:53:16;6.17;;;4.03;;
6499;SDS011;3283;52.330;9.772;2022-08-05T11:55:55;5.40;;;3.50;;
6499;SDS011;3283;52.330;9.772;2022-08-05T11:58:33;11.53;;;5.70;;
6499;SDS011;3283;52.330;9.772;2022-08-05T12:01:10;10.47;;;4.67;;
6499;SDS011;3283;52.330;9.772;2022-08-05T12:06:10;5.93;;;4.33;;
6499;SDS011;3283;52.330;9.772;2022-08-05T12:08:44;7.90;;;5.10;;
6499;SDS011;3283;52.330;9.772;2022-08-05T12:11:22;7.60;;;5.27;;
6499;SDS011;3283;52.330;9.772;2022-08-05T12:13:56;7.03;;;4.80;;
6499;SDS011;3283;52.330;9.772;2022-08-05T12:16:25;6.10;;;5.50;;
6499;SDS011;3283;52.330;9.772;2022-08-05T12:18:53;5.80;;;4.90;;
6499;SDS011;3283;52.330;9.772;2022-08-05T12:21:20;12.03;;;4.57;;
6499;SDS011;3283;52.330;9.772;2022-08-05T12:24:01;6.53;;;4.37;;
6499;SDS011;3283;52.330;9.772;2022-08-05T12:26:51;6.60;;;4.70;;
6499;SDS011;3283;52.330;9.772;2022-08-05T12:29:20;5.67;;;5.17;;
6499;SDS011;3283;52.330;9.772;2022-08-05T12:31:47;6.40;;;5.53;;
6499;SDS011;3283;52.330;9.772;2022-08-05T12:34:15;8.40;;;5.40;;
6499;SDS011;3283;52.330;9.772;2022-08-05T12:36:42;6.90;;;4.33;;
6499;SDS011;3283;52.330;9.772;2022-08-05T12:39:09;5.90;;;4.40;;
6499;SDS011;3283;52.330;9.772;2022-08-05T12:41:36;8.73;;;4.20;;
6499;SDS011;3283;52.330;9.772;2022-08-05T12:44:03;5.07;;;3.80;;
6499;SDS011;3283;52.330;9.772;2022-08-05T12:46:31;5.50;;;3.70;;
6499;SDS011;3283;52.330;9.772;2022-08-05T12:49:04;5.63;;;3.93;;
6499;SDS011;3283;52.330;9.772;2022-08-05T12:51:51;5.07;;;3.77;;
6499;SDS011;3283;52.330;9.772;2022-08-05T12:54:26;3.80;;;3.50;;
6499;SDS011;3283;52.330;9.772;2022-08-05T13:02:14;4.23;;;3.67;;
6499;SDS011;3283;52.330;9.772;2022-08-05T13:04:43;4.60;;;4.20;;
6499;SDS011;3283;52.330;9.772;2022-08-05T13:07:11;4.80;;;4.03;;
6499;SDS011;3283;52.330;9.772;2022-08-05T13:09:43;5.00;;;4.17;;
6499;SDS011;3283;52.330;9.772;2022-08-05T13:12:14;4.30;;;3.90;;
6499;SDS011;3283;52.330;9.772;2022-08-05T13:22:23;3.63;;;3.33;;
6499;SDS011;3283;52.330;9.772;2022-08-05T13:24:49;6.60;;;4.37;;
6499;SDS011;3283;52.330;9.772;2022-08-05T13:27:28;5.13;;;3.70;;
6499;SDS011;3283;52.330;9.772;2022-08-05T13:30:01;6.73;;;3.80;;
6499;SDS011;3283;52.330;9.772;2022-08-05T13:32:27;3.70;;;3.17;;
6499;SDS011;3283;52.330;9.772;2022-08-05T13:34:53;3.80;;;3.50;;
6499;SDS011;3283;52.330;9.772;2022-08-05T13:37:20;5.87;;;3.53;;
6499;SDS011;3283;52.330;9.772;2022-08-05T13:39:46;4.10;;;3.10;;
6499;SDS011;3283;52.330;9.772;2022-08-05T13:42:12;5.43;;;3.00;;
6499;SDS011;3283;52.330;9.772;2022-08-05T13:44:38;5.23;;;3.00;;
6499;SDS011;3283;52.330;9.772;2022-08-05T13:47:03;2.83;;;2.63;;
6499;SDS011;3283;52.330;9.772;2022-08-05T13:49:29;4.93;;;3.27;;
6499;SDS011;3283;52.330;9.772;2022-08-05T13:51:54;4.97;;;3.63;;
6499;SDS011;3283;52.330;9.772;2022-08-05T13:54:20;4.40;;;3.40;;
6499;SDS011;3283;52.330;9.772;2022-08-05T13:56:45;2.80;;;2.60;;
6499;SDS011;3283;52.330;9.772;2022-08-05T13:59:11;5.93;;;2.83;;
6499;SDS011;3283;52.330;9.772;2022-08-05T14:01:37;6.23;;;3.53;;
6499;SDS011;3283;52.330;9.772;2022-08-05T14:04:03;4.77;;;3.90;;
6499;SDS011;3283;52.330;9.772;2022-08-05T14:06:47;5.50;;;4.00;;
6499;SDS011;3283;52.330;9.772;2022-08-05T14:09:12;7.13;;;4.20;;
6499;SDS011;3283;52.330;9.772;2022-08-05T14:11:38;5.20;;;3.53;;
6499;SDS011;3283;52.330;9.772;2022-08-05T14:14:05;3.60;;;3.30;;
6499;SDS011;3283;52.330;9.772;2022-08-05T14:16:32;12.63;;;4.03;;
6499;SDS011;3283;52.330;9.772;2022-08-05T14:18:58;5.53;;;4.03;;
6499;SDS011;3283;52.330;9.772;2022-08-05T14:21:23;6.37;;;5.20;;
6499;SDS011;3283;52.330;9.772;2022-08-05T14:23:49;5.43;;;4.33;;
6499;SDS011;3283;52.330;9.772;2022-08-05T14:26:14;5.43;;;4.50;;
6499;SDS011;3283;52.330;9.772;2022-08-05T14:28:40;9.87;;;4.53;;
6499;SDS011;3283;52.330;9.772;2022-08-05T14:31:05;4.53;;;4.07;;
6499;SDS011;3283;52.330;9.772;2022-08-05T14:33:31;9.80;;;4.37;;
6499;SDS011;3283;52.330;9.772;2022-08-05T14:35:57;6.20;;;3.80;;
6499;SDS011;3283;52.330;9.772;2022-08-05T14:38:23;5.63;;;3.53;;
6499;SDS011;3283;52.330;9.772;2022-08-05T14:40:48;3.67;;;3.33;;
6499;SDS011;3283;52.330;9.772;2022-08-05T14:43:14;3.20;;;2.90;;
6499;SDS011;3283;52.330;9.772;2022-08-05T14:45:39;5.87;;;3.00;;
6499;SDS011;3283;52.330;9.772;2022-08-05T14:48:04;5.70;;;2.43;;
6499;SDS011;3283;52.330;9.772;2022-08-05T14:50:30;3.07;;;2.77;;
6499;SDS011;3283;52.330;9.772;2022-08-05T14:52:55;4.30;;;2.80;;
6499;SDS011;3283;52.330;9.772;2022-08-05T14:55:22;3.23;;;2.87;;
6499;SDS011;3283;52.330;9.772;2022-08-05T14:57:48;3.40;;;2.53;;
6499;SDS011;3283;52.330;9.772;2022-08-05T15:00:14;2.63;;;2.43;;
6499;SDS011;3283;52.330;9.772;2022-08-05T15:02:39;2.80;;;2.30;;
6499;SDS011;3283;52.330;9.772;2022-08-05T15:05:05;3.50;;;2.13;;
6499;SDS011;3283;52.330;9.772;2022-08-05T15:07:31;2.43;;;2.23;;
6499;SDS011;3283;52.330;9.772;2022-08-05T15:09:56;2.87;;;2.43;;
6499;SDS011;3283;52.330;9.772;2022-08-05T15:12:22;2.70;;;2.40;;
6499;SDS011;3283;52.330;9.772;2022-08-05T15:14:47;2.83;;;2.43;;
6499;SDS011;3283;52.330;9.772;2022-08-05T15:17:13;5.30;;;2.80;;
6499;SDS011;3283;52.330;9.772;2022-08-05T15:19:38;2.37;;;1.93;;
6499;SDS011;3283;52.330;9.772;2022-08-05T15:22:03;4.83;;;2.90;;
6499;SDS011;3283;52.330;9.772;2022-08-05T15:24:29;4.13;;;3.03;;
6499;SDS011;3283;52.330;9.772;2022-08-05T15:26:56;2.70;;;2.43;;
6499;SDS011;3283;52.330;9.772;2022-08-05T15:29:21;5.03;;;3.07;;
6499;SDS011;3283;52.330;9.772;2022-08-05T15:31:47;3.67;;;2.63;;
6499;SDS011;3283;52.330;9.772;2022-08-05T15:34:12;2.40;;;2.20;;
6499;SDS011;3283;52.330;9.772;2022-08-05T15:36:37;3.00;;;2.70;;
6499;SDS011;3283;52.330;9.772;2022-08-05T15:39:03;2.23;;;2.13;;
6499;SDS011;3283;52.330;9.772;2022-08-05T15:41:28;2.70;;;2.40;;
6499;SDS011;3283;52.330;9.772;2022-08-05T15:43:54;2.50;;;2.30;;
6499;SDS011;3283;52.330;9.772;2022-08-05T15:46:19;2.60;;;2.23;;
6499;SDS011;3283;52.330;9.772;2022-08-05T15:48:46;12.73;;;2.63;;
6499;SDS011;3283;52.330;9.772;2022-08-05T15:51:11;9.27;;;2.20;;
6499;SDS011;3283;52.330;9.772;2022-08-05T15:53:36;3.80;;;1.83;;
6499;SDS011;3283;52.330;9.772;2022-08-05T15:56:03;2.43;;;2.23;;
6499;SDS011;3283;52.330;9.772;2022-08-05T15:58:29;3.50;;;1.90;;
6499;SDS011;3283;52.330;9.772;2022-08-05T16:00:55;3.20;;;2.60;;
6499;SDS011;3283;52.330;9.772;2022-08-05T16:03:21;7.50;;;2.37;;